Time;durP1;ratioP1;P1;durP2;ratioP2;P2;SDS_P1;SDS_P2;PMS_P1;PMS_P2;Temp;Humidity;BMP_temperature;BMP_pressure;BME280_temperature;BME280_humidity;BME280_pressure;Samples;Min_cycle;Max_cycle;Signal;HPM_P1;HPM_P2
2021/07/18 00:02:13;;;;;;;13.48;5.43;;;;;;;16.80;82.88;102706.97;5052479;28;20025;-61
2021/07/18 00:04:38;;;;;;;9.50;4.90;;;;;;;16.81;82.59;102703.38;5058661;28;20075;-61
2021/07/18 00:07:04;;;;;;;11.98;4.88;;;;;;;16.81;82.78;102685.50;5052304;28;20032;-61
2021/07/18 00:09:30;;;;;;;10.18;4.68;;;;;;;16.78;82.56;102692.81;5052559;28;20037;-61
2021/07/18 00:11:55;;;;;;;7.38;4.47;;;;;;;16.77;82.60;102691.06;5052306;28;20078;-61
2021/07/18 00:14:20;;;;;;;9.93;4.45;;;;;;;16.77;82.76;102686.59;5051763;28;20033;-61
2021/07/18 00:16:45;;;;;;;11.43;4.60;;;;;;;16.81;83.24;102682.84;5053221;28;20120;-64
2021/07/18 00:19:11;;;;;;;8.00;4.32;;;;;;;16.84;82.15;102681.84;5051993;28;20033;-61
2021/07/18 00:21:37;;;;;;;10.05;4.10;;;;;;;16.80;82.23;102678.44;5052164;28;20071;-61
2021/07/18 00:24:03;;;;;;;10.23;4.30;;;;;;;16.75;82.64;102684.91;5052546;28;20064;-62
2021/07/18 00:26:28;;;;;;;8.35;4.32;;;;;;;16.73;83.15;102682.31;5066048;28;20052;-61
2021/07/18 00:28:54;;;;;;;9.70;4.63;;;;;;;16.74;82.90;102678.69;5072264;28;20063;-62
2021/07/18 00:31:19;;;;;;;8.98;4.30;;;;;;;16.78;83.68;102674.94;5072168;28;20032;-61
2021/07/18 00:33:44;;;;;;;8.65;3.70;;;;;;;16.81;82.61;102671.28;5072102;28;20173;-61
2021/07/18 00:36:10;;;;;;;9.52;4.57;;;;;;;16.76;82.27;102678.63;5068782;28;20037;-61
2021/07/18 00:38:35;;;;;;;8.32;4.13;;;;;;;16.70;81.74;102677.94;5072109;28;20025;-61
2021/07/18 00:41:00;;;;;;;6.80;4.10;;;;;;;16.64;82.08;102680.88;5072174;28;20542;-62
2021/07/18 00:43:26;;;;;;;10.32;4.63;;;;;;;16.62;81.88;102684.53;5072229;28;20033;-61
2021/07/18 00:45:59;;;;;;;8.75;4.43;;;;;;;16.59;82.35;102682.00;5069950;28;20024;-61
2021/07/18 00:48:29;;;;;;;8.02;4.53;;;;;;;16.55;82.56;102682.13;5069890;28;20545;-62
2021/07/18 00:50:55;;;;;;;8.68;4.40;;;;;;;16.54;82.64;102679.50;5071834;28;20067;-62
2021/07/18 00:53:21;;;;;;;7.80;4.53;;;;;;;16.53;82.49;102683.09;5072231;28;20016;-61
2021/07/18 00:55:47;;;;;;;6.55;4.13;;;;;;;16.54;82.53;102676.84;5071746;28;20055;-62
2021/07/18 00:58:13;;;;;;;8.82;4.68;;;;;;;16.50;82.60;102667.19;5068938;28;20158;-62
2021/07/18 01:00:39;;;;;;;7.07;3.88;;;;;;;16.46;83.38;102676.25;5071346;28;20032;-61
2021/07/18 01:03:05;;;;;;;10.02;4.38;;;;;;;16.45;82.46;102671.88;5072074;28;20025;-61
2021/07/18 01:05:30;;;;;;;8.80;4.63;;;;;;;16.42;83.35;102680.00;5071762;28;20024;-61
2021/07/18 01:07:56;;;;;;;7.80;4.18;;;;;;;16.38;83.30;102684.59;5069836;28;20033;-60
2021/07/18 01:10:21;;;;;;;9.50;4.85;;;;;;;16.37;84.25;102677.53;5071753;28;20481;-61
2021/07/18 01:12:47;;;;;;;7.93;4.20;;;;;;;16.38;83.66;102676.56;5071932;28;20017;-61
2021/07/18 01:15:13;;;;;;;9.10;4.57;;;;;;;16.35;84.13;102674.03;5071357;28;20059;-62
2021/07/18 01:17:40;;;;;;;8.30;4.55;;;;;;;16.33;84.21;102674.09;5068334;28;20087;-62
2021/07/18 01:20:10;;;;;;;8.00;4.60;;;;;;;16.32;83.81;102668.81;5073833;28;20480;-62
2021/07/18 01:22:36;;;;;;;10.90;4.22;;;;;;;16.31;84.39;102681.28;5075467;28;20032;-61
2021/07/18 01:25:05;;;;;;;9.35;4.93;;;;;;;16.33;84.58;102667.84;5075483;28;20031;-61
2021/07/18 01:27:31;;;;;;;9.68;4.55;;;;;;;16.34;83.52;102666.94;5071087;28;20032;-60
2021/07/18 01:29:57;;;;;;;9.73;4.55;;;;;;;16.31;83.54;102667.94;5074060;28;20024;-61
2021/07/18 01:32:23;;;;;;;9.85;5.03;;;;;;;16.29;84.02;102660.91;5074964;28;20024;-61
2021/07/18 01:34:49;;;;;;;8.38;5.13;;;;;;;16.29;84.12;102652.88;5075017;28;20104;-61
2021/07/18 01:37:15;;;;;;;11.40;4.57;;;;;;;16.27;83.86;102655.63;5074565;28;20020;-62
2021/07/18 01:39:40;;;;;;;6.57;4.50;;;;;;;16.24;84.29;102654.88;5056226;28;20115;-61
2021/07/18 01:42:06;;;;;;;6.68;4.95;;;;;;;16.20;84.18;102649.66;5055302;28;20036;-62
2021/07/18 01:44:31;;;;;;;9.05;4.65;;;;;;;16.18;84.51;102651.50;5054967;28;20025;-61
2021/07/18 01:46:57;;;;;;;9.57;4.50;;;;;;;16.18;84.51;102645.31;5054586;28;20434;-62
2021/07/18 01:49:23;;;;;;;9.55;4.90;;;;;;;16.16;84.94;102645.38;5056986;28;20025;-61
2021/07/18 01:51:48;;;;;;;9.98;5.47;;;;;;;16.17;84.52;102646.22;5062614;28;20500;-61
2021/07/18 01:54:14;;;;;;;9.13;5.22;;;;;;;16.14;84.77;102649.00;5055020;28;20104;-60
2021/07/18 01:56:40;;;;;;;9.38;5.35;;;;;;;16.14;84.87;102647.22;5054630;28;20070;-62
2021/07/18 01:59:06;;;;;;;9.57;5.05;;;;;;;16.14;84.81;102641.00;5056013;28;20025;-61
2021/07/18 02:01:32;;;;;;;8.52;5.05;;;;;;;16.14;84.76;102649.91;5055497;28;20542;-61
2021/07/18 02:03:58;;;;;;;11.13;5.45;;;;;;;16.13;85.01;102644.63;5055695;28;20036;-62
2021/07/18 02:06:26;;;;;;;9.48;5.05;;;;;;;16.13;84.48;102647.28;5054266;28;20021;-61
2021/07/18 02:08:55;;;;;;;9.75;5.20;;;;;;;16.12;84.51;102654.41;5054445;28;20025;-61
2021/07/18 02:11:21;;;;;;;10.75;5.10;;;;;;;16.12;84.52;102643.72;5063227;28;20032;-62
2021/07/18 02:13:55;;;;;;;9.32;5.57;;;;;;;16.12;84.39;102656.25;5054399;28;20476;-61
2021/07/18 02:16:21;;;;;;;11.23;5.35;;;;;;;16.12;84.36;102643.72;5054198;28;20049;-61
2021/07/18 02:18:48;;;;;;;11.35;5.32;;;;;;;16.13;84.69;102641.94;5054108;28;20048;-61
2021/07/18 02:21:16;;;;;;;11.13;5.20;;;;;;;16.11;84.38;102643.78;5056149;28;20029;-62
2021/07/18 02:23:42;;;;;;;9.32;5.57;;;;;;;16.11;84.85;102657.16;5054319;28;20033;-62
2021/07/18 02:26:09;;;;;;;9.40;5.22;;;;;;;16.07;85.46;102651.06;5054232;28;20039;-61
2021/07/18 02:28:34;;;;;;;12.00;5.93;;;;;;;16.05;85.04;102643.09;5054271;28;20033;-62
2021/07/18 02:31:04;;;;;;;10.75;5.75;;;;;;;16.04;85.46;102651.19;5055098;28;20032;-62
2021/07/18 02:33:29;;;;;;;10.60;5.68;;;;;;;16.01;85.30;102649.50;5057447;28;20037;-61
2021/07/18 02:35:55;;;;;;;10.18;6.38;;;;;;;16.00;85.25;102642.41;5053805;28;20535;-62
2021/07/18 02:38:20;;;;;;;10.70;5.75;;;;;;;15.97;85.28;102637.22;5054049;28;20488;-62
2021/07/18 02:40:46;;;;;;;10.23;6.00;;;;;;;15.97;85.46;102647.00;5055041;28;20464;-61
2021/07/18 02:43:11;;;;;;;12.82;6.03;;;;;;;15.97;85.49;102641.66;5054982;28;20032;-62
2021/07/18 02:45:36;;;;;;;11.35;6.03;;;;;;;15.95;85.47;102647.06;5054099;28;20024;-62
2021/07/18 02:48:02;;;;;;;10.70;5.95;;;;;;;15.94;85.41;102650.66;5053556;28;20187;-62
2021/07/18 02:50:28;;;;;;;8.98;6.18;;;;;;;15.93;85.29;102638.22;5053501;28;20027;-61
2021/07/18 02:52:54;;;;;;;9.10;5.70;;;;;;;15.91;85.20;102648.13;5055840;28;20021;-61
2021/07/18 02:55:21;;;;;;;11.05;6.20;;;;;;;15.88;85.34;102641.09;5053886;28;20102;-62
2021/07/18 02:57:47;;;;;;;10.35;5.43;;;;;;;15.87;85.63;102638.50;5053815;28;20021;-62
2021/07/18 03:00:18;;;;;;;12.73;5.55;;;;;;;15.87;85.06;102633.16;5053369;28;20078;-62
2021/07/18 03:02:45;;;;;;;10.68;5.78;;;;;;;15.88;85.32;102642.88;5054475;28;20035;-61
2021/07/18 03:05:11;;;;;;;10.57;5.55;;;;;;;15.90;85.68;102633.03;5069853;28;20032;-62
2021/07/18 03:07:38;;;;;;;10.75;5.50;;;;;;;15.94;85.65;102642.66;5073308;28;20025;-62
2021/07/18 03:10:07;;;;;;;9.27;5.20;;;;;;;15.95;85.21;102633.72;5073554;28;20029;-61
2021/07/18 03:12:32;;;;;;;7.53;5.05;;;;;;;15.93;85.02;102634.69;5071436;28;20086;-61
2021/07/18 03:15:03;;;;;;;8.82;5.20;;;;;;;15.87;85.09;102634.00;5071473;28;20036;-61
2021/07/18 03:17:29;;;;;;;10.48;5.88;;;;;;;15.84;85.06;102626.13;5073123;28;20036;-62
2021/07/18 03:19:54;;;;;;;9.10;4.57;;;;;;;15.84;85.23;102623.47;5072621;28;20541;-61
2021/07/18 03:22:21;;;;;;;8.35;4.85;;;;;;;15.86;84.89;102626.91;5072572;28;20456;-62
2021/07/18 03:24:46;;;;;;;9.43;4.72;;;;;;;15.86;84.77;102626.06;5071399;28;20111;-61
2021/07/18 03:27:12;;;;;;;7.75;5.05;;;;;;;15.83;84.83;102618.16;5073181;28;20056;-62
2021/07/18 03:29:37;;;;;;;11.13;5.22;;;;;;;15.82;84.42;102622.63;5073113;28;20032;-61
2021/07/18 03:32:03;;;;;;;10.80;5.25;;;;;;;15.80;84.94;102613.75;5073136;28;20021;-61
2021/07/18 03:34:29;;;;;;;10.63;5.25;;;;;;;15.81;85.07;102628.00;5070751;28;20047;-62
2021/07/18 03:36:54;;;;;;;10.73;5.03;;;;;;;15.80;85.29;102616.44;5071276;28;20068;-61
2021/07/18 03:39:19;;;;;;;8.70;5.18;;;;;;;15.82;84.94;102621.75;5072721;28;20024;-61
2021/07/18 03:41:45;;;;;;;9.07;4.78;;;;;;;15.82;84.85;102619.97;5072338;28;20021;-61
2021/07/18 03:44:10;;;;;;;7.85;4.68;;;;;;;15.83;84.73;102619.03;5071139;28;20035;-62
2021/07/18 03:46:36;;;;;;;9.07;4.55;;;;;;;15.85;84.24;102618.97;5071107;28;20028;-61
2021/07/18 03:49:01;;;;;;;10.35;4.47;;;;;;;15.85;84.49;102618.97;5060662;28;20372;-62
2021/07/18 03:51:26;;;;;;;8.20;4.45;;;;;;;15.82;85.16;102619.97;5052448;28;20040;-62
2021/07/18 03:53:52;;;;;;;8.18;4.72;;;;;;;15.80;84.80;102613.75;5053678;28;20025;-62
2021/07/18 03:56:17;;;;;;;9.63;4.55;;;;;;;15.79;85.33;102620.03;5052607;28;20029;-61
2021/07/18 03:58:43;;;;;;;9.65;4.40;;;;;;;15.81;85.13;102620.00;5053617;28;20480;-62
2021/07/18 04:01:12;;;;;;;11.90;4.38;;;;;;;15.84;84.94;102618.13;5052652;28;20404;-62
2021/07/18 04:03:38;;;;;;;12.05;4.55;;;;;;;15.85;84.43;102621.66;5052282;28;20554;-62
2021/07/18 04:06:04;;;;;;;9.73;4.50;;;;;;;15.85;84.62;102624.31;5053297;28;20108;-61
2021/07/18 04:08:30;;;;;;;8.27;4.18;;;;;;;15.84;83.95;102622.56;5053669;28;20037;-62
2021/07/18 04:10:55;;;;;;;6.00;4.03;;;;;;;15.85;83.97;102625.19;5052381;28;20389;-61
2021/07/18 04:13:21;;;;;;;12.88;5.18;;;;;;;15.87;83.46;102625.13;5052651;28;20028;-61
2021/07/18 04:15:46;;;;;;;8.05;4.90;;;;;;;15.89;83.48;102624.16;5053381;28;20048;-61
2021/07/18 04:18:11;;;;;;;11.93;5.05;;;;;;;15.92;84.18;102628.50;5053556;28;20029;-61
2021/07/18 04:20:38;;;;;;;6.43;4.28;;;;;;;15.96;83.92;102631.91;5052205;28;20036;-61
2021/07/18 04:23:04;;;;;;;9.70;4.95;;;;;;;15.99;83.84;102635.31;5052200;28;20058;-61
2021/07/18 04:25:29;;;;;;;9.40;5.07;;;;;;;16.02;84.36;102629.88;5053621;28;20025;-61
2021/07/18 04:27:55;;;;;;;9.20;4.60;;;;;;;16.05;83.80;102619.06;5052345;28;20043;-61
2021/07/18 04:30:21;;;;;;;7.50;4.13;;;;;;;16.10;83.69;102623.34;5053435;28;20388;-62
2021/07/18 04:32:46;;;;;;;6.88;4.45;;;;;;;16.16;82.84;102624.00;5052112;28;20025;-62
2021/07/18 04:35:12;;;;;;;7.60;4.40;;;;;;;16.20;82.89;102620.25;5052996;28;20431;-61
2021/07/18 04:37:38;;;;;;;10.07;4.68;;;;;;;16.24;82.93;102626.34;5052208;28;20109;-61
2021/07/18 04:40:05;;;;;;;10.10;5.32;;;;;;;16.27;83.21;102626.22;5053068;28;20029;-61
2021/07/18 04:42:30;;;;;;;9.95;5.45;;;;;;;16.30;83.45;102625.22;5052034;28;20037;-61
2021/07/18 04:44:56;;;;;;;8.38;5.05;;;;;;;16.38;83.10;102631.13;5052182;28;20025;-61
2021/07/18 04:47:22;;;;;;;11.90;5.15;;;;;;;16.43;83.26;102629.13;5053109;28;20086;-61
2021/07/18 04:49:47;;;;;;;9.45;4.72;;;;;;;16.49;83.07;102639.56;5053083;28;20112;-61
2021/07/18 04:52:12;;;;;;;12.15;5.43;;;;;;;16.55;83.04;102636.66;5051981;28;20025;-62
2021/07/18 04:54:38;;;;;;;9.18;4.57;;;;;;;16.65;83.35;102628.22;5053498;28;20435;-61
2021/07/18 04:57:03;;;;;;;8.18;4.78;;;;;;;16.68;82.62;102634.31;5056897;28;20025;-62
2021/07/18 04:59:29;;;;;;;11.93;5.55;;;;;;;16.74;83.07;102635.91;5055661;28;20120;-62
2021/07/18 05:01:54;;;;;;;8.50;5.07;;;;;;;16.83;82.89;102631.97;5056771;28;20032;-61
2021/07/18 05:04:19;;;;;;;9.30;4.90;;;;;;;16.98;82.74;102625.09;5073358;28;20033;-62
2021/07/18 05:06:44;;;;;;;8.43;4.40;;;;;;;17.09;82.01;102627.31;5074882;28;20051;-61
2021/07/18 05:09:10;;;;;;;11.82;4.90;;;;;;;17.15;81.65;102635.94;5075049;28;20043;-62
2021/07/18 05:11:35;;;;;;;6.80;4.30;;;;;;;17.22;81.39;102630.31;5073893;28;20028;-62
2021/07/18 05:14:01;;;;;;;8.45;4.45;;;;;;;17.28;80.83;102630.91;5075553;28;20044;-62
2021/07/18 05:16:26;;;;;;;9.77;4.72;;;;;;;17.33;80.66;102636.91;5075353;28;20044;-61
2021/07/18 05:18:51;;;;;;;12.00;4.50;;;;;;;17.39;80.71;102629.56;5073752;28;20111;-62
2021/07/18 05:21:17;;;;;;;10.57;5.25;;;;;;;17.45;80.57;102626.59;5075366;28;20056;-61
2021/07/18 05:23:43;;;;;;;7.72;4.63;;;;;;;17.55;80.11;102627.91;5073385;28;20502;-62
2021/07/18 05:26:08;;;;;;;6.82;4.28;;;;;;;17.55;80.05;102627.91;5075623;28;20024;-62
2021/07/18 05:28:33;;;;;;;8.35;4.40;;;;;;;17.64;79.88;102632.84;5073425;28;20470;-61
2021/07/18 05:30:59;;;;;;;10.40;4.38;;;;;;;17.69;79.59;102625.47;5075577;28;20029;-62
2021/07/18 05:33:24;;;;;;;8.60;4.03;;;;;;;17.73;79.50;102625.34;5073818;28;20109;-62
2021/07/18 05:35:52;;;;;;;9.35;4.57;;;;;;;17.79;79.23;102620.56;5075174;28;20383;-61
2021/07/18 05:38:17;;;;;;;7.60;4.03;;;;;;;17.83;79.10;102622.13;5073072;28;20036;-62
2021/07/18 05:40:42;;;;;;;9.68;4.35;;;;;;;17.84;78.23;102617.66;5074836;28;20369;-61
2021/07/18 05:43:08;;;;;;;6.45;3.95;;;;;;;17.87;77.90;102624.69;5073665;28;20089;-61
2021/07/18 05:45:33;;;;;;;6.10;3.80;;;;;;;17.86;77.92;102623.81;5075303;28;20056;-61
2021/07/18 05:47:58;;;;;;;10.55;3.80;;;;;;;17.92;77.09;102628.03;5074929;28;20039;-61
2021/07/18 05:50:23;;;;;;;6.20;3.60;;;;;;;17.98;77.16;102635.78;5073160;28;20028;-62
2021/07/18 05:52:49;;;;;;;5.97;3.22;;;;;;;18.01;76.63;102632.97;5074678;28;20044;-61
2021/07/18 05:55:15;;;;;;;6.05;3.40;;;;;;;18.08;76.08;102623.69;5072410;28;20034;-61
2021/07/18 05:57:40;;;;;;;8.18;3.15;;;;;;;18.19;76.39;102628.53;5074739;28;20476;-62
2021/07/18 06:00:08;;;;;;;6.07;3.00;;;;;;;18.24;75.56;102629.16;5070164;28;20035;-61
2021/07/18 06:02:34;;;;;;;7.00;3.00;;;;;;;18.32;75.99;102628.78;5058848;28;20024;-60
2021/07/18 06:04:59;;;;;;;5.50;3.17;;;;;;;18.34;75.07;102630.44;5064448;28;20025;-62
2021/07/18 06:07:25;;;;;;;9.68;2.90;;;;;;;18.35;75.28;102631.34;5057148;28;20021;-60
2021/07/18 06:09:50;;;;;;;6.40;3.20;;;;;;;18.41;75.46;102631.00;5061026;28;20037;-60
2021/07/18 06:12:15;;;;;;;4.80;3.10;;;;;;;18.50;75.63;102630.56;5063196;28;20077;-60
2021/07/18 06:14:43;;;;;;;6.22;2.92;;;;;;;18.58;74.61;102629.31;5057144;28;20078;-60
2021/07/18 06:17:11;;;;;;;6.40;3.33;;;;;;;18.55;74.69;102624.97;5055769;28;20041;-60
2021/07/18 06:19:38;;;;;;;6.13;3.30;;;;;;;18.54;74.69;102625.03;5062123;28;20104;-60
2021/07/18 06:22:04;;;;;;;7.90;3.13;;;;;;;18.55;75.04;102635.69;5054083;28;20025;-61
2021/07/18 06:24:29;;;;;;;6.50;2.80;;;;;;;18.59;74.68;102639.09;5066722;28;20456;-60
2021/07/18 06:26:54;;;;;;;7.90;2.95;;;;;;;18.58;74.80;102632.88;5054497;28;20049;-60
2021/07/18 06:29:20;;;;;;;5.07;2.80;;;;;;;18.71;74.78;102635.81;5071489;28;20032;-60
2021/07/18 06:31:45;;;;;;;8.48;3.25;;;;;;;18.85;74.14;102632.41;5073899;28;20025;-60
2021/07/18 06:34:11;;;;;;;7.35;3.03;;;;;;;18.87;74.01;102622.44;5073807;28;20103;-60
2021/07/18 06:36:36;;;;;;;4.50;2.35;;;;;;;18.96;73.86;102627.41;5058509;28;20503;-60
2021/07/18 06:39:02;;;;;;;4.93;2.60;;;;;;;19.02;73.51;102628.88;5066380;28;20041;-61
2021/07/18 06:41:27;;;;;;;7.03;2.72;;;;;;;19.08;73.88;102623.19;5072352;28;20033;-60
2021/07/18 06:43:53;;;;;;;5.65;2.88;;;;;;;19.19;73.74;102622.59;5071757;28;20116;-60
2021/07/18 06:46:18;;;;;;;4.82;2.90;;;;;;;19.32;72.27;102625.50;5054274;28;20028;-60
2021/07/18 06:48:44;;;;;;;4.72;2.80;;;;;;;19.37;72.19;102633.34;5060850;28;20024;-60
2021/07/18 06:51:09;;;;;;;7.43;2.80;;;;;;;19.45;71.80;102637.34;5061026;28;20105;-60
2021/07/18 06:53:34;;;;;;;7.38;2.80;;;;;;;19.54;71.71;102629.72;5073192;28;20020;-61
2021/07/18 06:56:00;;;;;;;4.50;2.50;;;;;;;19.62;72.12;102627.50;5067851;28;20032;-61
2021/07/18 06:58:25;;;;;;;5.18;2.70;;;;;;;19.76;72.27;102621.38;5066836;28;20099;-61
2021/07/18 07:00:50;;;;;;;6.15;2.63;;;;;;;19.88;71.15;102626.06;5070331;28;20105;-61
2021/07/18 07:03:16;;;;;;;6.47;2.95;;;;;;;19.91;70.90;102620.53;5054004;28;20406;-61
2021/07/18 07:05:41;;;;;;;5.82;2.60;;;;;;;19.98;71.26;102635.34;5062438;28;20460;-61
2021/07/18 07:08:06;;;;;;;8.98;2.70;;;;;;;20.01;70.56;102634.31;5053799;28;20033;-62
2021/07/18 07:10:32;;;;;;;6.60;2.53;;;;;;;19.96;70.16;102631.00;5053783;28;20025;-60
2021/07/18 07:12:57;;;;;;;8.18;3.20;;;;;;;19.93;70.55;102633.88;5056783;28;20422;-60
2021/07/18 07:15:23;;;;;;;6.50;2.88;;;;;;;20.01;70.40;102639.69;5065193;28;20496;-62
2021/07/18 07:17:48;;;;;;;5.38;2.63;;;;;;;20.08;69.18;102634.84;5053013;28;20075;-60
2021/07/18 07:20:14;;;;;;;5.00;2.65;;;;;;;20.23;69.40;102633.97;5067175;28;20499;-61
2021/07/18 07:22:41;;;;;;;7.20;2.60;;;;;;;20.33;68.12;102626.22;5073563;28;20107;-60
2021/07/18 07:25:12;;;;;;;5.80;2.47;;;;;;;20.37;68.82;102632.28;5073316;28;20056;-61
2021/07/18 07:27:37;;;;;;;5.88;2.47;;;;;;;20.54;68.32;102631.34;5073706;28;20108;-61
2021/07/18 07:30:07;;;;;;;4.97;2.35;;;;;;;20.68;68.17;102635.88;5072613;28;20554;-60
2021/07/18 07:32:33;;;;;;;4.20;2.55;;;;;;;20.79;67.98;102626.25;5057840;28;20036;-60
2021/07/18 07:34:59;;;;;;;4.63;2.10;;;;;;;20.99;67.16;102628.72;5053129;28;20025;-60
2021/07/18 07:37:24;;;;;;;6.97;2.53;;;;;;;21.02;67.18;102626.66;5052821;28;20040;-62
2021/07/18 07:39:55;;;;;;;4.53;2.20;;;;;;;21.13;65.42;102628.72;5052684;28;20641;-60
2021/07/18 07:42:21;;;;;;;4.05;2.20;;;;;;;21.13;65.68;102639.50;5053129;28;20141;-60
2021/07/18 07:44:48;;;;;;;6.45;2.08;;;;;;;21.14;65.45;102630.47;5052649;28;20024;-62
2021/07/18 07:47:14;;;;;;;4.78;2.50;;;;;;;21.14;65.96;102637.66;5052949;28;20108;-62
2021/07/18 07:49:40;;;;;;;5.13;2.40;;;;;;;21.31;64.60;102634.78;5058022;28;20461;-60
2021/07/18 07:52:05;;;;;;;6.28;2.50;;;;;;;21.33;64.68;102635.56;5061907;28;20020;-60
2021/07/18 07:54:31;;;;;;;4.50;2.40;;;;;;;21.43;63.87;102633.16;5060713;28;20488;-60
2021/07/18 07:56:56;;;;;;;5.22;2.30;;;;;;;21.61;63.89;102625.75;5061271;28;20020;-61
2021/07/18 07:59:21;;;;;;;5.20;2.20;;;;;;;21.67;63.48;102622.69;5072200;28;20032;-62
2021/07/18 08:01:46;;;;;;;4.70;2.10;;;;;;;21.85;62.50;102625.16;5067928;28;20033;-63
2021/07/18 08:04:12;;;;;;;4.28;2.35;;;;;;;22.01;61.90;102635.81;5064331;28;20036;-61
2021/07/18 08:06:37;;;;;;;3.88;2.17;;;;;;;22.13;61.23;102639.56;5058660;28;20024;-61
2021/07/18 08:09:03;;;;;;;4.10;2.10;;;;;;;22.10;60.73;102638.78;5058131;28;20035;-62
2021/07/18 08:11:28;;;;;;;6.00;2.30;;;;;;;22.14;60.47;102636.75;5064228;28;20033;-61
2021/07/18 08:13:53;;;;;;;5.10;2.38;;;;;;;22.10;61.37;102637.94;5062385;28;20385;-61
2021/07/18 08:16:19;;;;;;;4.75;2.03;;;;;;;22.30;60.67;102633.03;5066029;28;20052;-61
2021/07/18 08:18:45;;;;;;;4.63;1.95;;;;;;;22.22;60.86;102634.41;5065442;28;20096;-61
2021/07/18 08:21:10;;;;;;;4.82;2.30;;;;;;;22.37;59.62;102629.88;5060767;28;20477;-61
2021/07/18 08:23:36;;;;;;;3.65;2.17;;;;;;;22.51;59.51;102631.63;5068009;28;20028;-63
2021/07/18 08:26:01;;;;;;;4.43;2.00;;;;;;;22.69;59.23;102632.22;5067864;28;20056;-60
2021/07/18 08:28:27;;;;;;;5.82;2.10;;;;;;;22.67;58.15;102627.91;5062799;28;20476;-63
2021/07/18 08:30:53;;;;;;;4.13;2.22;;;;;;;22.73;59.36;102625.63;5071048;28;20062;-62
2021/07/18 08:33:18;;;;;;;5.43;2.30;;;;;;;22.92;58.29;102630.63;5064188;28;20024;-62
2021/07/18 08:35:43;;;;;;;6.05;2.20;;;;;;;23.00;57.52;102624.69;5069597;28;20036;-63
2021/07/18 08:38:09;;;;;;;5.28;2.08;;;;;;;23.15;57.74;102628.22;5056049;28;20412;-61
2021/07/18 08:40:36;;;;;;;5.00;2.17;;;;;;;23.23;57.07;102624.97;5056726;28;20028;-64
2021/07/18 08:43:02;;;;;;;5.25;2.13;;;;;;;23.34;56.10;102624.22;5069695;28;20915;-63
2021/07/18 08:45:28;;;;;;;6.50;2.20;;;;;;;23.35;56.99;102618.69;5065067;28;20028;-63
2021/07/18 08:47:53;;;;;;;4.15;2.15;;;;;;;23.82;55.42;102629.72;5064253;28;20384;-64
2021/07/18 08:50:19;;;;;;;5.40;2.72;;;;;;;25.05;53.47;102610.63;5062477;28;20033;-63
2021/07/18 08:52:54;;;;;;;4.78;2.17;;;;;;;26.51;47.87;102629.59;5069257;28;20044;-63
2021/07/18 08:55:22;;;;;;;4.45;1.98;;;;;;;27.68;44.37;102621.28;5069989;28;20028;-64
2021/07/18 08:57:47;;;;;;;6.72;2.28;;;;;;;28.48;44.01;102610.38;5070280;28;20435;-64
2021/07/18 09:00:14;;;;;;;7.53;2.72;;;;;;;28.21;43.92;102611.97;5068758;28;20493;-63
2021/07/18 09:02:40;;;;;;;7.50;2.40;;;;;;;27.99;44.69;102609.47;5059874;28;20025;-61
2021/07/18 09:05:06;;;;;;;6.18;1.85;;;;;;;28.69;41.77;102607.50;5064183;28;20086;-64
2021/07/18 09:07:41;;;;;;;5.35;2.47;;;;;;;29.22;41.15;102608.81;5068040;28;20037;-64
2021/07/18 09:10:07;;;;;;;4.30;2.13;;;;;;;29.79;40.45;102604.25;5071321;28;20029;-62
2021/07/18 09:12:34;;;;;;;5.22;2.33;;;;;;;29.84;39.45;102608.22;5061311;28;20017;-64
2021/07/18 09:15:00;;;;;;;3.65;1.98;;;;;;;28.23;42.63;102598.19;5056160;28;20104;-64
2021/07/18 09:17:26;;;;;;;5.82;2.60;;;;;;;28.85;41.43;102611.47;5075780;28;20464;-63
2021/07/18 09:19:51;;;;;;;6.55;2.20;;;;;;;29.34;40.64;102609.50;5076023;28;20020;-64
2021/07/18 09:22:19;;;;;;;4.95;2.30;;;;;;;29.66;39.60;102612.81;5074292;28;20469;-63
2021/07/18 09:24:46;;;;;;;6.68;2.53;;;;;;;30.10;39.07;102610.22;5075612;28;20032;-63
2021/07/18 09:27:19;;;;;;;8.98;2.60;;;;;;;30.24;38.96;102614.28;5073901;28;20036;-62
2021/07/18 09:30:05;;;;;;;5.70;2.20;;;;;;;30.19;39.26;102611.16;5058189;28;20060;-64
2021/07/18 09:32:33;;;;;;;4.40;2.10;;;;;;;30.17;38.27;102611.31;5061515;28;20016;-63
2021/07/18 09:35:04;;;;;;;5.35;2.20;;;;;;;30.37;39.69;102612.03;5055518;28;20373;-64
2021/07/18 09:37:32;;;;;;;4.18;2.03;;;;;;;30.75;36.93;102610.97;5054719;28;20365;-64
2021/07/18 09:40:13;;;;;;;5.15;2.08;;;;;;;30.80;38.29;102614.09;5054658;28;20036;-64
2021/07/18 09:42:47;;;;;;;5.75;2.30;;;;;;;30.15;38.38;102612.50;5065058;28;20035;-62
2021/07/18 09:45:15;;;;;;;5.38;2.20;;;;;;;29.85;38.44;102600.91;5068485;28;20479;-64
2021/07/18 09:47:55;;;;;;;5.57;2.05;;;;;;;29.93;38.29;102602.88;5055559;28;20029;-63
2021/07/18 09:50:25;;;;;;;5.20;2.15;;;;;;;30.02;38.63;102601.94;5074200;28;20040;-63
2021/07/18 09:53:04;;;;;;;5.70;2.27;;;;;;;30.10;38.21;102601.19;5075050;28;20031;-62
2021/07/18 09:55:29;;;;;;;5.25;2.50;;;;;;;29.62;38.45;102606.78;5075023;28;20029;-64
2021/07/18 09:57:55;;;;;;;5.18;2.22;;;;;;;30.17;37.70;102603.13;5074730;28;20028;-64
2021/07/18 10:00:22;;;;;;;5.78;2.20;;;;;;;30.18;38.13;102603.97;5074990;28;20111;-62
2021/07/18 10:02:48;;;;;;;6.20;2.03;;;;;;;30.12;37.20;102597.28;5069194;28;20413;-63
2021/07/18 10:05:28;;;;;;;5.30;2.30;;;;;;;29.80;38.62;102598.63;5067959;28;20024;-63
2021/07/18 10:08:07;;;;;;;3.90;2.08;;;;;;;29.97;40.46;102594.22;5072818;28;20024;-62
2021/07/18 10:10:35;;;;;;;6.47;2.20;;;;;;;29.95;38.24;102607.19;5063513;28;20059;-62
2021/07/18 10:13:02;;;;;;;5.63;2.10;;;;;;;30.30;37.61;102605.47;5058678;28;20252;-63
2021/07/18 10:15:28;;;;;;;5.95;2.40;;;;;;;30.38;37.16;102607.41;5074699;28;20045;-60
2021/07/18 10:17:53;;;;;;;6.13;2.50;;;;;;;30.59;36.38;102607.13;5069632;28;20036;-62
2021/07/18 10:20:19;;;;;;;4.38;2.40;;;;;;;30.66;36.66;102599.13;5059599;28;20035;-63
2021/07/18 10:22:47;;;;;;;4.70;2.30;;;;;;;30.65;37.07;102602.88;5074419;28;20103;-61
2021/07/18 10:25:15;;;;;;;5.78;2.20;;;;;;;30.47;36.02;102595.56;5074431;28;20024;-63
2021/07/18 10:27:42;;;;;;;4.32;2.10;;;;;;;30.53;37.25;102603.13;5074095;28;20066;-63
2021/07/18 10:30:07;;;;;;;5.18;1.90;;;;;;;30.83;36.17;102594.63;5072514;28;20123;-64
2021/07/18 10:32:34;;;;;;;5.57;2.13;;;;;;;30.62;36.07;102595.00;5073985;28;20059;-64
2021/07/18 10:35:00;;;;;;;3.80;1.90;;;;;;;31.05;34.75;102588.63;5074163;28;20028;-63
2021/07/18 10:37:38;;;;;;;3.33;1.80;;;;;;;31.57;33.68;102586.78;5073650;28;20028;-64
2021/07/18 10:40:11;;;;;;;3.45;2.05;;;;;;;31.74;33.41;102576.78;5072476;28;20028;-63
2021/07/18 10:42:37;;;;;;;5.95;2.05;;;;;;;31.74;35.34;102587.75;5068024;28;20033;-63
2021/07/18 10:45:22;;;;;;;2.63;1.75;;;;;;;31.28;34.73;102588.06;5073650;28;20069;-63
2021/07/18 10:48:05;;;;;;;4.22;2.10;;;;;;;30.58;36.01;102577.19;5073986;28;20021;-63
2021/07/18 10:50:42;;;;;;;4.97;2.10;;;;;;;31.13;35.15;102587.81;5073864;28;20020;-64
2021/07/18 10:53:25;;;;;;;4.53;1.92;;;;;;;31.58;34.52;102565.75;5072209;28;20028;-64
2021/07/18 10:55:52;;;;;;;5.45;2.10;;;;;;;32.12;33.65;102568.09;5073539;28;20024;-64
2021/07/18 10:58:39;;;;;;;4.03;2.00;;;;;;;31.16;36.94;102576.53;5073667;28;20028;-64
2021/07/18 11:01:10;;;;;;;4.15;2.13;;;;;;;31.57;34.51;102572.25;5073331;28;20078;-64
2021/07/18 11:03:38;;;;;;;4.25;2.10;;;;;;;31.34;35.02;102581.91;5072141;28;20056;-64
2021/07/18 11:06:25;;;;;;;5.60;1.80;;;;;;;31.61;33.82;102568.16;5073496;28;20030;-64
2021/07/18 11:09:06;;;;;;;3.50;1.73;;;;;;;31.35;34.59;102574.56;5073414;28;20024;-64
2021/07/18 11:11:49;;;;;;;6.50;1.90;;;;;;;30.95;35.32;102557.78;5073308;28;20035;-63
2021/07/18 11:14:35;;;;;;;6.25;2.10;;;;;;;30.83;35.46;102572.75;5071626;28;20024;-64
2021/07/18 11:17:08;;;;;;;4.50;2.10;;;;;;;30.81;36.66;102569.31;5069269;28;20040;-63
2021/07/18 11:19:39;;;;;;;4.25;2.00;;;;;;;30.73;35.95;102572.84;5073113;28;20051;-63
2021/07/18 11:22:13;;;;;;;3.05;1.88;;;;;;;31.48;34.89;102566.75;5073128;28;20025;-63
2021/07/18 11:24:55;;;;;;;3.45;2.00;;;;;;;31.81;34.04;102561.38;5071381;28;20025;-64